Surt, Libya
Current Conditions -  °F | °C
As of 2:45 PM on Saturday 25 Oct 2014 (Local Time) from LMML Reporting Station
Broken Clouds Broken Clouds  
Wind Chill: 73°   Ceiling: 4300
Heat Index: 73°   Visibility: 6mi
Dew Point: 52°   Wind: 20mph
Humidity: 47%   Direction: 330°NNW
Pressure: 29.97"   Gusts: NA
Location:  31.21°N, 16.59°E
Report Text: LMML 251145Z AUTO 33017KT 9999NDV BKN043/// BKN048/// BKN059///23/11 Q1015
Loading
Personal Weather Stations






























Interactive Weather Map
Tropical Storm Tracking
New forecast layout! Learn more

10-Day Weather Forecast

Advertisements
Track Severe Weather on mobile